sensor_id;sensor_type;location;lat;lon;timestamp;pressure;altitude;pressure_sealevel;temperature;humidity
7614;BME280;3848;42.016;23.098;2023-11-21T00:01:06;97044.75;;;4.20;100.00
7614;BME280;3848;42.016;23.098;2023-11-21T00:03:34;97038.88;;;4.21;100.00
7614;BME280;3848;42.016;23.098;2023-11-21T00:06:01;97021.06;;;4.08;100.00
7614;BME280;3848;42.016;23.098;2023-11-21T00:08:28;97047.28;;;4.22;100.00
7614;BME280;3848;42.016;23.098;2023-11-21T00:10:55;97040.59;;;4.24;100.00
7614;BME280;3848;42.016;23.098;2023-11-21T00:13:23;97032.16;;;4.19;100.00
7614;BME280;3848;42.016;23.098;2023-11-21T00:15:50;97039.75;;;4.23;100.00
7614;BME280;3848;42.016;23.098;2023-11-21T00:18:17;97038.91;;;4.23;100.00
7614;BME280;3848;42.016;23.098;2023-11-21T00:20:44;97042.22;;;4.19;100.00
7614;BME280;3848;42.016;23.098;2023-11-21T00:23:11;97048.91;;;4.18;100.00
7614;BME280;3848;42.016;23.098;2023-11-21T00:25:38;97033.53;;;4.00;100.00
7614;BME280;3848;42.016;23.098;2023-11-21T00:28:05;97043.63;;;4.03;100.00
7614;BME280;3848;42.016;23.098;2023-11-21T00:30:34;97043.56;;;3.98;100.00
7614;BME280;3848;42.016;23.098;2023-11-21T00:33:01;97030.81;;;3.88;100.00
7614;BME280;3848;42.016;23.098;2023-11-21T00:35:28;97053.50;;;3.94;100.00
7614;BME280;3848;42.016;23.098;2023-11-21T00:37:55;97034.06;;;3.81;100.00
7614;BME280;3848;42.016;23.098;2023-11-21T00:40:23;97049.31;;;3.93;100.00
7614;BME280;3848;42.016;23.098;2023-11-21T00:42:50;97043.53;;;3.97;100.00
7614;BME280;3848;42.016;23.098;2023-11-21T00:45:17;97041.88;;;3.97;100.00
7614;BME280;3848;42.016;23.098;2023-11-21T00:47:45;97051.16;;;4.03;100.00
7614;BME280;3848;42.016;23.098;2023-11-21T00:50:12;97055.38;;;4.04;100.00
7614;BME280;3848;42.016;23.098;2023-11-21T00:52:39;97048.63;;;4.02;100.00
7614;BME280;3848;42.016;23.098;2023-11-21T00:55:07;97056.09;;;3.97;100.00
7614;BME280;3848;42.016;23.098;2023-11-21T00:57:34;97070.41;;;4.01;100.00
7614;BME280;3848;42.016;23.098;2023-11-21T01:00:01;97065.38;;;4.01;100.00
7614;BME280;3848;42.016;23.098;2023-11-21T01:02:32;97062.88;;;4.01;100.00
7614;BME280;3848;42.016;23.098;2023-11-21T01:05:02;97063.81;;;4.08;100.00
7614;BME280;3848;42.016;23.098;2023-11-21T01:07:29;97061.97;;;3.97;100.00
7614;BME280;3848;42.016;23.098;2023-11-21T01:09:56;97059.44;;;3.96;100.00
7614;BME280;3848;42.016;23.098;2023-11-21T01:12:23;97062.66;;;3.89;100.00
7614;BME280;3848;42.016;23.098;2023-11-21T01:14:51;97054.19;;;3.84;100.00
7614;BME280;3848;42.016;23.098;2023-11-21T01:17:18;97050.81;;;3.82;100.00
7614;BME280;3848;42.016;23.098;2023-11-21T01:19:45;97028.75;;;3.65;100.00
7614;BME280;3848;42.016;23.098;2023-11-21T01:22:13;97052.38;;;3.75;100.00
7614;BME280;3848;42.016;23.098;2023-11-21T01:24:41;97050.44;;;3.60;100.00
7614;BME280;3848;42.016;23.098;2023-11-21T01:27:08;97046.94;;;3.52;100.00
7614;BME280;3848;42.016;23.098;2023-11-21T01:29:35;97055.41;;;3.57;100.00
7614;BME280;3848;42.016;23.098;2023-11-21T01:32:02;97051.28;;;3.59;100.00
7614;BME280;3848;42.016;23.098;2023-11-21T01:34:29;97043.69;;;3.56;100.00
7614;BME280;3848;42.016;23.098;2023-11-21T01:36:57;97052.97;;;3.62;100.00
7614;BME280;3848;42.016;23.098;2023-11-21T01:39:25;97048.78;;;3.61;100.00
7614;BME280;3848;42.016;23.098;2023-11-21T01:41:52;97042.03;;;3.58;100.00
7614;BME280;3848;42.016;23.098;2023-11-21T01:44:19;97037.88;;;3.60;100.00
7614;BME280;3848;42.016;23.098;2023-11-21T01:46:46;97027.03;;;3.61;100.00
7614;BME280;3848;42.016;23.098;2023-11-21T01:49:14;97031.22;;;3.62;100.00
7614;BME280;3848;42.016;23.098;2023-11-21T01:51:41;97033.78;;;3.65;100.00
7614;BME280;3848;42.016;23.098;2023-11-21T01:54:09;96996.47;;;3.37;100.00
7614;BME280;3848;42.016;23.098;2023-11-21T01:56:38;97032.84;;;3.59;100.00
7614;BME280;3848;42.016;23.098;2023-11-21T01:59:05;97036.03;;;3.52;100.00
7614;BME280;3848;42.016;23.098;2023-11-21T02:01:33;97019.97;;;3.42;100.00
7614;BME280;3848;42.016;23.098;2023-11-21T02:04:00;97027.47;;;3.39;100.00
7614;BME280;3848;42.016;23.098;2023-11-21T02:06:27;97015.78;;;3.41;100.00
7614;BME280;3848;42.016;23.098;2023-11-21T02:08:56;97009.81;;;3.34;100.00
7614;BME280;3848;42.016;23.098;2023-11-21T02:11:25;97020.78;;;3.41;100.00
7614;BME280;3848;42.016;23.098;2023-11-21T02:13:54;97023.31;;;3.41;100.00
7614;BME280;3848;42.016;23.098;2023-11-21T02:16:21;97020.81;;;3.43;100.00
7614;BME280;3848;42.016;23.098;2023-11-21T02:18:48;97019.22;;;3.46;100.00
7614;BME280;3848;42.016;23.098;2023-11-21T02:21:15;97012.53;;;3.48;100.00
7614;BME280;3848;42.016;23.098;2023-11-21T02:23:43;97011.78;;;3.52;100.00
7614;BME280;3848;42.016;23.098;2023-11-21T02:26:12;97010.94;;;3.52;100.00
7614;BME280;3848;42.016;23.098;2023-11-21T02:28:39;97005.97;;;3.55;100.00
7614;BME280;3848;42.016;23.098;2023-11-21T02:31:06;97001.91;;;3.61;100.00
7614;BME280;3848;42.016;23.098;2023-11-21T02:33:33;97007.72;;;3.59;100.00
7614;BME280;3848;42.016;23.098;2023-11-21T02:36:00;96998.53;;;3.59;100.00
7614;BME280;3848;42.016;23.098;2023-11-21T02:38:27;97001.16;;;3.67;100.00
7614;BME280;3848;42.016;23.098;2023-11-21T02:40:57;96996.88;;;3.61;100.00
7614;BME280;3848;42.016;23.098;2023-11-21T02:43:24;96999.56;;;3.74;100.00
7614;BME280;3848;42.016;23.098;2023-11-21T02:45:51;97008.91;;;3.81;100.00
7614;BME280;3848;42.016;23.098;2023-11-21T02:48:18;97008.09;;;3.82;100.00
7614;BME280;3848;42.016;23.098;2023-11-21T02:50:45;97004.59;;;3.74;100.00
7614;BME280;3848;42.016;23.098;2023-11-21T02:53:12;96996.22;;;3.73;100.00
7614;BME280;3848;42.016;23.098;2023-11-21T02:55:39;97004.72;;;3.80;100.00
7614;BME280;3848;42.016;23.098;2023-11-21T02:58:07;97001.38;;;3.79;100.00
7614;BME280;3848;42.016;23.098;2023-11-21T03:00:34;97001.38;;;3.79;100.00
7614;BME280;3848;42.016;23.098;2023-11-21T03:03:01;97008.78;;;3.75;100.00
7614;BME280;3848;42.016;23.098;2023-11-21T03:05:29;97010.34;;;3.66;100.00
7614;BME280;3848;42.016;23.098;2023-11-21T03:07:56;96999.38;;;3.61;100.00
7614;BME280;3848;42.016;23.098;2023-11-21T03:10:23;97003.56;;;3.61;100.00
7614;BME280;3848;42.016;23.098;2023-11-21T03:12:50;97008.63;;;3.62;100.00
7614;BME280;3848;42.016;23.098;2023-11-21T03:15:18;97001.72;;;3.52;100.00
7614;BME280;3848;42.016;23.098;2023-11-21T03:17:45;97001.69;;;3.49;100.00
7614;BME280;3848;42.016;23.098;2023-11-21T03:20:14;96995.03;;;3.53;100.00
7614;BME280;3848;42.016;23.098;2023-11-21T03:22:41;96988.28;;;3.50;100.00
7614;BME280;3848;42.016;23.098;2023-11-21T03:25:09;96974.72;;;3.39;100.00
7614;BME280;3848;42.016;23.098;2023-11-21T03:27:37;96990.38;;;3.26;100.00
7614;BME280;3848;42.016;23.098;2023-11-21T03:30:05;96998.59;;;3.16;100.00
7614;BME280;3848;42.016;23.098;2023-11-21T03:32:35;97009.97;;;3.00;100.00
7614;BME280;3848;42.016;23.098;2023-11-21T03:35:02;97018.13;;;2.90;100.00
7614;BME280;3848;42.016;23.098;2023-11-21T03:37:29;97022.31;;;2.89;100.00
7614;BME280;3848;42.016;23.098;2023-11-21T03:42:41;97014.66;;;2.83;100.00
7614;BME280;3848;42.016;23.098;2023-11-21T03:45:09;97012.06;;;2.79;100.00
7614;BME280;3848;42.016;23.098;2023-11-21T03:47:39;97008.53;;;2.70;100.00
7614;BME280;3848;42.016;23.098;2023-11-21T03:50:06;97000.94;;;2.66;100.00
7614;BME280;3848;42.016;23.098;2023-11-21T03:52:34;97009.31;;;2.68;100.00
7614;BME280;3848;42.016;23.098;2023-11-21T03:55:01;97009.34;;;2.69;100.00
7614;BME280;3848;42.016;23.098;2023-11-21T03:57:28;97010.03;;;2.61;100.00
7614;BME280;3848;42.016;23.098;2023-11-21T03:59:54;97014.13;;;2.57;100.00
7614;BME280;3848;42.016;23.098;2023-11-21T04:02:22;97026.59;;;2.53;100.00
7614;BME280;3848;42.016;23.098;2023-11-21T04:04:51;97017.25;;;2.47;100.00
7614;BME280;3848;42.016;23.098;2023-11-21T04:07:18;97028.22;;;2.51;100.00
7614;BME280;3848;42.016;23.098;2023-11-21T04:09:47;97029.91;;;2.52;100.00
7614;BME280;3848;42.016;23.098;2023-11-21T04:12:14;97028.31;;;2.55;100.00
7614;BME280;3848;42.016;23.098;2023-11-21T04:14:41;97026.84;;;2.66;100.00
7614;BME280;3848;42.016;23.098;2023-11-21T04:17:08;97022.84;;;2.73;100.00
7614;BME280;3848;42.016;23.098;2023-11-21T04:19:34;97020.44;;;2.79;100.00
7614;BME280;3848;42.016;23.098;2023-11-21T04:22:03;97027.22;;;2.83;100.00
7614;BME280;3848;42.016;23.098;2023-11-21T04:24:30;97018.09;;;2.88;100.00
7614;BME280;3848;42.016;23.098;2023-11-21T04:26:57;97015.66;;;2.91;100.00
7614;BME280;3848;42.016;23.098;2023-11-21T04:29:24;97014.09;;;2.96;100.00
7614;BME280;3848;42.016;23.098;2023-11-21T04:31:51;97003.31;;;3.02;100.00
7614;BME280;3848;42.016;23.098;2023-11-21T04:34:17;96994.84;;;2.95;100.00
7614;BME280;3848;42.016;23.098;2023-11-21T04:36:44;97012.66;;;3.09;100.00
7614;BME280;3848;42.016;23.098;2023-11-21T04:39:13;97010.13;;;3.08;100.00
7614;BME280;3848;42.016;23.098;2023-11-21T04:41:40;97004.41;;;3.13;100.00
7614;BME280;3848;42.016;23.098;2023-11-21T04:44:06;97000.28;;;3.17;100.00
7614;BME280;3848;42.016;23.098;2023-11-21T04:46:33;96998.56;;;3.14;100.00
7614;BME280;3848;42.016;23.098;2023-11-21T04:49:00;96990.91;;;3.10;100.00
7614;BME280;3848;42.016;23.098;2023-11-21T04:51:27;97004.41;;;3.13;100.00
7614;BME280;3848;42.016;23.098;2023-11-21T04:53:54;97005.75;;;2.97;100.00
7614;BME280;3848;42.016;23.098;2023-11-21T04:56:22;97011.44;;;2.89;100.00
7614;BME280;3848;42.016;23.098;2023-11-21T04:58:50;97018.03;;;2.84;100.00
7614;BME280;3848;42.016;23.098;2023-11-21T05:01:16;97011.22;;;2.78;100.00
7614;BME280;3848;42.016;23.098;2023-11-21T05:03:43;97019.78;;;2.88;100.00
7614;BME280;3848;42.016;23.098;2023-11-21T05:06:12;97020.66;;;2.91;100.00
7614;BME280;3848;42.016;23.098;2023-11-21T05:08:39;97016.44;;;2.89;100.00
7614;BME280;3848;42.016;23.098;2023-11-21T05:11:06;97016.31;;;2.83;100.00
7614;BME280;3848;42.016;23.098;2023-11-21T05:13:37;97014.50;;;2.74;100.00
7614;BME280;3848;42.016;23.098;2023-11-21T05:16:04;97020.19;;;2.67;100.00
7614;BME280;3848;42.016;23.098;2023-11-21T05:18:31;97019.25;;;2.62;100.00
7614;BME280;3848;42.016;23.098;2023-11-21T05:20:59;97023.34;;;2.58;100.00
7614;BME280;3848;42.016;23.098;2023-11-21T05:23:26;97026.56;;;2.51;100.00
7614;BME280;3848;42.016;23.098;2023-11-21T05:25:53;97007.09;;;2.41;100.00
7614;BME280;3848;42.016;23.098;2023-11-21T05:28:21;97017.97;;;2.41;100.00
7614;BME280;3848;42.016;23.098;2023-11-21T05:30:50;97012.09;;;2.39;100.00
7614;BME280;3848;42.016;23.098;2023-11-21T05:33:17;96991.88;;;2.32;100.00
7614;BME280;3848;42.016;23.098;2023-11-21T05:35:44;97006.25;;;2.40;100.00
7614;BME280;3848;42.016;23.098;2023-11-21T05:38:11;97005.28;;;2.34;100.00
7614;BME280;3848;42.016;23.098;2023-11-21T05:40:38;97020.56;;;2.46;100.00
7614;BME280;3848;42.016;23.098;2023-11-21T05:43:04;97013.94;;;2.48;100.00
7614;BME280;3848;42.016;23.098;2023-11-21T05:45:31;96993.72;;;2.40;100.00
7614;BME280;3848;42.016;23.098;2023-11-21T05:48:00;97020.09;;;2.62;100.00
7614;BME280;3848;42.016;23.098;2023-11-21T05:50:26;97000.78;;;2.58;100.00
7614;BME280;3848;42.016;23.098;2023-11-21T05:52:53;97024.50;;;2.72;100.00
7614;BME280;3848;42.016;23.098;2023-11-21T05:55:22;97004.44;;;2.72;100.00
7614;BME280;3848;42.016;23.098;2023-11-21T05:57:51;97006.31;;;2.84;100.00
7614;BME280;3848;42.016;23.098;2023-11-21T06:00:18;97014.09;;;2.96;100.00
7614;BME280;3848;42.016;23.098;2023-11-21T06:02:50;97015.13;;;3.08;100.00
7614;BME280;3848;42.016;23.098;2023-11-21T06:05:22;97017.78;;;3.14;100.00
7614;BME280;3848;42.016;23.098;2023-11-21T06:07:50;97025.44;;;3.20;100.00
7614;BME280;3848;42.016;23.098;2023-11-21T06:10:19;97024.63;;;3.22;100.00
7614;BME280;3848;42.016;23.098;2023-11-21T06:12:46;97029.06;;;3.34;100.00
7614;BME280;3848;42.016;23.098;2023-11-21T06:15:14;97024.94;;;3.39;100.00
7614;BME280;3848;42.016;23.098;2023-11-21T06:17:41;97019.88;;;3.36;100.00
7614;BME280;3848;42.016;23.098;2023-11-21T06:20:09;97026.72;;;3.45;100.00
7614;BME280;3848;42.016;23.098;2023-11-21T06:22:41;97031.94;;;3.55;100.00
7614;BME280;3848;42.016;23.098;2023-11-21T06:25:26;97036.19;;;3.13;100.00
7614;BME280;3848;42.016;23.098;2023-11-21T06:27:53;97040.47;;;3.18;100.00
7614;BME280;3848;42.016;23.098;2023-11-21T06:30:21;97033.28;;;2.93;100.00
7614;BME280;3848;42.016;23.098;2023-11-21T06:32:48;97039.38;;;3.05;100.00
7614;BME280;3848;42.016;23.098;2023-11-21T06:35:20;97035.31;;;3.12;100.00
7614;BME280;3848;42.016;23.098;2023-11-21T06:37:48;97028.03;;;3.26;100.00
7614;BME280;3848;42.016;23.098;2023-11-21T06:40:17;97028.16;;;3.32;100.00
7614;BME280;3848;42.016;23.098;2023-11-21T06:42:45;97021.44;;;3.31;100.00
7614;BME280;3848;42.016;23.098;2023-11-21T06:45:12;97022.28;;;3.31;100.00
7614;BME280;3848;42.016;23.098;2023-11-21T06:47:40;97033.13;;;3.29;100.00
7614;BME280;3848;42.016;23.098;2023-11-21T06:50:08;97026.41;;;3.28;100.00
7614;BME280;3848;42.016;23.098;2023-11-21T06:52:35;97030.56;;;3.26;100.00
7614;BME280;3848;42.016;23.098;2023-11-21T06:55:04;97007.75;;;3.14;100.00
7614;BME280;3848;42.016;23.098;2023-11-21T06:57:33;97017.91;;;3.20;100.00
7614;BME280;3848;42.016;23.098;2023-11-21T07:00:00;96972.44;;;3.06;100.00
7614;BME280;3848;42.016;23.098;2023-11-21T07:02:27;97022.22;;;3.28;100.00
7614;BME280;3848;42.016;23.098;2023-11-21T07:04:54;97022.28;;;3.31;100.00
7614;BME280;3848;42.016;23.098;2023-11-21T07:07:21;97005.94;;;3.08;100.00
7614;BME280;3848;42.016;23.098;2023-11-21T07:09:48;97018.50;;;3.08;100.00
7614;BME280;3848;42.016;23.098;2023-11-21T07:12:16;97018.06;;;3.29;100.00
7614;BME280;3848;42.016;23.098;2023-11-21T07:14:43;97024.03;;;3.34;100.00
7614;BME280;3848;42.016;23.098;2023-11-21T07:17:10;97018.22;;;3.36;100.00
7614;BME280;3848;42.016;23.098;2023-11-21T07:19:38;97020.84;;;3.44;100.00
7614;BME280;3848;42.016;23.098;2023-11-21T07:22:07;97019.97;;;3.42;100.00
7614;BME280;3848;42.016;23.098;2023-11-21T07:24:34;97039.38;;;3.51;100.00
7614;BME280;3848;42.016;23.098;2023-11-21T07:27:02;97037.72;;;3.51;100.00
7614;BME280;3848;42.016;23.098;2023-11-21T07:29:31;97049.53;;;3.55;100.00
7614;BME280;3848;42.016;23.098;2023-11-21T07:31:58;97055.66;;;3.71;100.00
7614;BME280;3848;42.016;23.098;2023-11-21T07:34:26;97049.06;;;3.78;100.00
7614;BME280;3848;42.016;23.098;2023-11-21T07:36:53;97048.34;;;3.85;100.00
7614;BME280;3848;42.016;23.098;2023-11-21T07:39:20;97047.81;;;4.03;100.00
7614;BME280;3848;42.016;23.098;2023-11-21T07:41:46;97045.53;;;4.18;100.00
7614;BME280;3848;42.016;23.098;2023-11-21T07:44:16;97038.94;;;4.26;100.00
7614;BME280;3848;42.016;23.098;2023-11-21T07:46:45;97048.47;;;4.47;100.00
7614;BME280;3848;42.016;23.098;2023-11-21T07:49:12;97049.53;;;4.63;100.00
7614;BME280;3848;42.016;23.098;2023-11-21T07:51:41;97045.44;;;4.69;100.00
7614;BME280;3848;42.016;23.098;2023-11-21T07:54:09;97047.09;;;4.67;100.00
7614;BME280;3848;42.016;23.098;2023-11-21T07:56:36;97048.78;;;4.68;100.00
7614;BME280;3848;42.016;23.098;2023-11-21T07:59:03;97051.00;;;4.47;100.00
7614;BME280;3848;42.016;23.098;2023-11-21T08:01:30;97054.59;;;4.64;100.00
7614;BME280;3848;42.016;23.098;2023-11-21T08:03:59;97049.69;;;4.75;100.00
7614;BME280;3848;42.016;23.098;2023-11-21T08:06:28;97041.53;;;4.93;100.00
7614;BME280;3848;42.016;23.098;2023-11-21T08:08:56;97055.00;;;4.95;100.00
7614;BME280;3848;42.016;23.098;2023-11-21T08:11:23;97052.56;;;5.01;100.00
7614;BME280;3848;42.016;23.098;2023-11-21T08:13:50;97042.53;;;5.04;100.00
7614;BME280;3848;42.016;23.098;2023-11-21T08:16:17;97046.88;;;5.17;100.00
7614;BME280;3848;42.016;23.098;2023-11-21T08:18:44;97042.84;;;5.31;100.00
7614;BME280;3848;42.016;23.098;2023-11-21T08:21:13;97049.69;;;5.43;100.00
7614;BME280;3848;42.016;23.098;2023-11-21T08:23:40;97050.63;;;5.53;100.00
7614;BME280;3848;42.016;23.098;2023-11-21T08:26:07;97044.69;;;5.47;100.00
7614;BME280;3848;42.016;23.098;2023-11-21T08:28:34;97052.41;;;5.63;100.00
7614;BME280;3848;42.016;23.098;2023-11-21T08:31:01;97044.88;;;5.63;100.00
7614;BME280;3848;42.016;23.098;2023-11-21T08:33:28;97045.75;;;5.68;100.00
7614;BME280;3848;42.016;23.098;2023-11-21T08:35:55;97044.94;;;5.73;100.00
7614;BME280;3848;42.016;23.098;2023-11-21T08:38:23;97049.97;;;5.72;100.00
7614;BME280;3848;42.016;23.098;2023-11-21T08:40:50;97050.81;;;5.72;100.00
7614;BME280;3848;42.016;23.098;2023-11-21T08:43:17;97038.22;;;5.71;100.00
7614;BME280;3848;42.016;23.098;2023-11-21T08:45:45;97029.63;;;5.54;100.00
7614;BME280;3848;42.016;23.098;2023-11-21T08:48:12;97034.63;;;5.47;100.00
7614;BME280;3848;42.016;23.098;2023-11-21T08:50:40;97031.13;;;5.36;100.00
7614;BME280;3848;42.016;23.098;2023-11-21T08:53:06;97027.72;;;5.30;100.00
7614;BME280;3848;42.016;23.098;2023-11-21T08:55:35;97012.69;;;5.40;100.00
7614;BME280;3848;42.016;23.098;2023-11-21T08:58:03;96928.41;;;5.06;100.00
7614;BME280;3848;42.016;23.098;2023-11-21T09:00:31;97001.09;;;5.58;100.00
7614;BME280;3848;42.016;23.098;2023-11-21T09:02:58;97016.38;;;5.74;100.00
7614;BME280;3848;42.016;23.098;2023-11-21T09:05:25;97013.81;;;5.67;100.00
7614;BME280;3848;42.016;23.098;2023-11-21T09:07:52;96991.97;;;5.67;100.00
7614;BME280;3848;42.016;23.098;2023-11-21T09:10:19;96969.34;;;5.78;100.00
7614;BME280;3848;42.016;23.098;2023-11-21T09:12:47;96946.75;;;5.87;100.00
7614;BME280;3848;42.016;23.098;2023-11-21T09:15:14;96919.97;;;6.01;100.00
7614;BME280;3848;42.016;23.098;2023-11-21T09:17:41;96922.56;;;6.10;100.00
7614;BME280;3848;42.016;23.098;2023-11-21T09:20:10;96928.47;;;6.14;100.00
7614;BME280;3848;42.016;23.098;2023-11-21T09:22:37;96918.38;;;6.19;100.00
7614;BME280;3848;42.016;23.098;2023-11-21T09:25:05;96915.94;;;6.29;100.00
7614;BME280;3848;42.016;23.098;2023-11-21T09:27:34;96904.28;;;6.54;100.00
7614;BME280;3848;42.016;23.098;2023-11-21T09:30:03;96900.13;;;6.68;100.00
7614;BME280;3848;42.016;23.098;2023-11-21T09:32:31;96892.56;;;6.76;100.00
7614;BME280;3848;42.016;23.098;2023-11-21T09:34:57;96884.16;;;6.72;100.00
7614;BME280;3848;42.016;23.098;2023-11-21T09:37:27;96888.38;;;6.78;100.00
7614;BME280;3848;42.016;23.098;2023-11-21T09:39:54;96879.91;;;6.64;100.00
7614;BME280;3848;42.016;23.098;2023-11-21T09:42:25;96865.63;;;6.73;100.00
7614;BME280;3848;42.016;23.098;2023-11-21T09:44:58;96850.50;;;6.86;100.00
7614;BME280;3848;42.016;23.098;2023-11-21T09:47:32;96837.06;;;6.96;100.00
7614;BME280;3848;42.016;23.098;2023-11-21T09:50:02;96825.25;;;7.07;100.00
7614;BME280;3848;42.016;23.098;2023-11-21T09:52:31;96820.25;;;7.10;100.00
7614;BME280;3848;42.016;23.098;2023-11-21T09:54:59;96826.09;;;7.00;100.00
7614;BME280;3848;42.016;23.098;2023-11-21T09:57:27;96824.41;;;6.87;100.00
7614;BME280;3848;42.016;23.098;2023-11-21T10:00:04;96833.69;;;6.97;100.00
7614;BME280;3848;42.016;23.098;2023-11-21T10:02:39;96820.25;;;7.09;100.00
7614;BME280;3848;42.016;23.098;2023-11-21T10:05:07;96820.22;;;7.24;100.00
7614;BME280;3848;42.016;23.098;2023-11-21T10:07:35;96808.41;;;7.41;100.00
7614;BME280;3848;42.016;23.098;2023-11-21T10:10:03;96805.88;;;7.55;100.00
7614;BME280;3848;42.016;23.098;2023-11-21T10:12:32;96805.03;;;7.60;100.00
7614;BME280;3848;42.016;23.098;2023-11-21T10:15:02;96798.28;;;7.61;100.00
7614;BME280;3848;42.016;23.098;2023-11-21T10:17:32;96820.19;;;7.76;100.00
7614;BME280;3848;42.016;23.098;2023-11-21T10:20:10;96810.03;;;7.82;100.00
7614;BME280;3848;42.016;23.098;2023-11-21T10:22:40;96807.50;;;7.88;100.00
7614;BME280;3848;42.016;23.098;2023-11-21T10:25:08;96798.22;;;7.93;100.00
7614;BME280;3848;42.016;23.098;2023-11-21T10:27:35;96804.06;;;8.06;100.00
7614;BME280;3848;42.016;23.098;2023-11-21T10:30:05;96796.44;;;8.10;100.00
7614;BME280;3848;42.016;23.098;2023-11-21T10:32:33;96781.25;;;8.19;100.00
7614;BME280;3848;42.016;23.098;2023-11-21T10:35:00;96779.50;;;8.27;100.00
7614;BME280;3848;42.016;23.098;2023-11-21T10:37:33;96788.78;;;8.36;100.00
7614;BME280;3848;42.016;23.098;2023-11-21T10:40:00;96781.13;;;8.45;100.00
7614;BME280;3848;42.016;23.098;2023-11-21T10:42:27;96781.94;;;8.53;100.00
7614;BME280;3848;42.016;23.098;2023-11-21T10:44:55;96797.06;;;8.64;100.00
7614;BME280;3848;42.016;23.098;2023-11-21T10:47:22;96783.53;;;8.70;100.00
7614;BME280;3848;42.016;23.098;2023-11-21T10:49:49;96759.88;;;8.69;100.00
7614;BME280;3848;42.016;23.098;2023-11-21T10:52:18;96732.09;;;8.62;100.00
7614;BME280;3848;42.016;23.098;2023-11-21T10:54:47;96761.41;;;8.93;100.00
7614;BME280;3848;42.016;23.098;2023-11-21T10:57:18;96757.91;;;9.09;100.00
7614;BME280;3848;42.016;23.098;2023-11-21T10:59:47;96751.06;;;9.16;100.00
7614;BME280;3848;42.016;23.098;2023-11-21T11:02:22;96752.69;;;9.26;100.00
7614;BME280;3848;42.016;23.098;2023-11-21T11:04:52;96737.38;;;9.38;100.00
7614;BME280;3848;42.016;23.098;2023-11-21T11:07:21;96696.81;;;9.34;100.00
7614;BME280;3848;42.016;23.098;2023-11-21T11:09:54;96718.44;;;9.70;100.00
7614;BME280;3848;42.016;23.098;2023-11-21T11:12:21;96715.66;;;9.90;100.00
7614;BME280;3848;42.016;23.098;2023-11-21T11:14:48;96717.06;;;10.12;100.00
7614;BME280;3848;42.016;23.098;2023-11-21T11:17:16;96707.50;;;10.32;100.00
7614;BME280;3848;42.016;23.098;2023-11-21T11:19:46;96703.84;;;10.52;100.00
7614;BME280;3848;42.016;23.098;2023-11-21T11:22:24;96712.59;;;10.89;100.00
7614;BME280;3848;42.016;23.098;2023-11-21T11:25:18;96711.06;;;11.30;100.00
7614;BME280;3848;42.016;23.098;2023-11-21T11:27:53;96705.69;;;11.45;100.00
7614;BME280;3848;42.016;23.098;2023-11-21T11:30:32;96697.91;;;11.53;100.00
7614;BME280;3848;42.016;23.098;2023-11-21T11:33:11;96686.66;;;11.65;100.00
7614;BME280;3848;42.016;23.098;2023-11-21T11:35:49;96690.69;;;11.75;100.00
7614;BME280;3848;42.016;23.098;2023-11-21T11:38:21;96688.97;;;11.77;100.00
7614;BME280;3848;42.016;23.098;2023-11-21T11:40:52;96683.88;;;11.78;100.00
7614;BME280;3848;42.016;23.098;2023-11-21T11:43:25;96669.81;;;11.57;100.00
7614;BME280;3848;42.016;23.098;2023-11-21T11:45:55;96670.97;;;11.41;100.00
7614;BME280;3848;42.016;23.098;2023-11-21T11:48:22;96672.19;;;11.22;100.00
7614;BME280;3848;42.016;23.098;2023-11-21T11:51:03;96665.56;;;11.13;100.00
7614;BME280;3848;42.016;23.098;2023-11-21T11:53:35;96663.31;;;10.96;100.00
7614;BME280;3848;42.016;23.098;2023-11-21T11:56:24;96651.47;;;10.95;100.00
7614;BME280;3848;42.016;23.098;2023-11-21T11:58:53;96648.16;;;10.92;100.00
7614;BME280;3848;42.016;23.098;2023-11-21T12:01:21;96636.16;;;10.98;100.00
7614;BME280;3848;42.016;23.098;2023-11-21T12:07:01;96635.06;;;11.13;100.00
7614;BME280;3848;42.016;23.098;2023-11-21T12:09:30;96626.78;;;11.02;100.00
7614;BME280;3848;42.016;23.098;2023-11-21T12:12:00;96633.25;;;11.18;100.00
7614;BME280;3848;42.016;23.098;2023-11-21T12:14:27;96631.47;;;11.25;100.00
7614;BME280;3848;42.016;23.098;2023-11-21T12:16:57;96628.06;;;11.26;100.00
7614;BME280;3848;42.016;23.098;2023-11-21T12:19:25;96621.09;;;11.34;100.00
7614;BME280;3848;42.016;23.098;2023-11-21T12:21:52;96618.63;;;11.31;100.00
7614;BME280;3848;42.016;23.098;2023-11-21T12:24:21;96619.59;;;11.25;100.00
7614;BME280;3848;42.016;23.098;2023-11-21T12:26:49;96622.00;;;11.32;100.00
7614;BME280;3848;42.016;23.098;2023-11-21T12:29:17;96615.22;;;11.32;100.00
7614;BME280;3848;42.016;23.098;2023-11-21T12:31:45;96597.63;;;11.20;100.00
7614;BME280;3848;42.016;23.098;2023-11-21T12:34:13;96599.22;;;11.27;100.00
7614;BME280;3848;42.016;23.098;2023-11-21T12:36:40;96602.78;;;11.17;100.00
7614;BME280;3848;42.016;23.098;2023-11-21T12:39:07;96601.91;;;11.18;100.00
7614;BME280;3848;42.016;23.098;2023-11-21T12:41:36;96601.84;;;11.21;100.00
7614;BME280;3848;42.016;23.098;2023-11-21T12:44:03;96602.97;;;11.08;100.00
7614;BME280;3848;42.016;23.098;2023-11-21T12:46:32;96596.19;;;11.08;100.00
7614;BME280;3848;42.016;23.098;2023-11-21T12:49:00;96581.03;;;11.04;100.00
7614;BME280;3848;42.016;23.098;2023-11-21T12:51:27;96578.41;;;11.07;100.00
7614;BME280;3848;42.016;23.098;2023-11-21T12:53:55;96579.72;;;11.26;100.00
7614;BME280;3848;42.016;23.098;2023-11-21T12:59:22;96576.09;;;11.78;100.00
7614;BME280;3848;42.016;23.098;2023-11-21T13:01:49;96566.66;;;12.21;100.00
7614;BME280;3848;42.016;23.098;2023-11-21T13:04:16;96562.28;;;12.61;100.00
7614;BME280;3848;42.016;23.098;2023-11-21T13:06:44;96555.19;;;12.73;100.00
7614;BME280;3848;42.016;23.098;2023-11-21T13:09:11;96558.19;;;12.88;100.00
7614;BME280;3848;42.016;23.098;2023-11-21T13:11:46;96555.38;;;12.98;100.00
7614;BME280;3848;42.016;23.098;2023-11-21T13:14:13;96546.53;;;13.10;100.00
7614;BME280;3848;42.016;23.098;2023-11-21T13:16:42;96551.19;;;13.27;100.00
7614;BME280;3848;42.016;23.098;2023-11-21T13:19:11;96539.09;;;13.35;100.00
7614;BME280;3848;42.016;23.098;2023-11-21T13:21:38;96543.81;;;13.47;100.00
7614;BME280;3848;42.016;23.098;2023-11-21T13:24:06;96540.34;;;13.50;100.00